sensor_id;sensor_type;location;lat;lon;timestamp;temperature;humidity
1461;DHT22;724;49.910;12.530;2023-07-13T00:00:09;19.10;99.90
1461;DHT22;724;49.910;12.530;2023-07-13T00:02:36;19.00;99.90
1461;DHT22;724;49.910;12.530;2023-07-13T00:05:03;19.00;99.90
1461;DHT22;724;49.910;12.530;2023-07-13T00:07:31;19.10;99.90
1461;DHT22;724;49.910;12.530;2023-07-13T00:09:58;19.10;99.90
1461;DHT22;724;49.910;12.530;2023-07-13T00:12:27;19.10;99.90
1461;DHT22;724;49.910;12.530;2023-07-13T00:14:56;19.10;99.90
1461;DHT22;724;49.910;12.530;2023-07-13T00:17:23;19.10;99.90
1461;DHT22;724;49.910;12.530;2023-07-13T00:19:50;19.10;99.90
1461;DHT22;724;49.910;12.530;2023-07-13T00:22:17;19.10;99.90
1461;DHT22;724;49.910;12.530;2023-07-13T00:24:45;19.20;99.90
1461;DHT22;724;49.910;12.530;2023-07-13T00:27:12;19.10;99.90
1461;DHT22;724;49.910;12.530;2023-07-13T00:29:39;19.00;99.90
1461;DHT22;724;49.910;12.530;2023-07-13T00:32:08;19.00;99.90
1461;DHT22;724;49.910;12.530;2023-07-13T00:34:37;19.00;99.90
1461;DHT22;724;49.910;12.530;2023-07-13T00:37:04;19.00;99.90
1461;DHT22;724;49.910;12.530;2023-07-13T00:39:32;19.00;99.90
1461;DHT22;724;49.910;12.530;2023-07-13T00:42:00;19.00;99.90
1461;DHT22;724;49.910;12.530;2023-07-13T00:44:27;19.00;99.90
1461;DHT22;724;49.910;12.530;2023-07-13T00:46:54;19.00;99.90
1461;DHT22;724;49.910;12.530;2023-07-13T00:49:25;19.10;99.90
1461;DHT22;724;49.910;12.530;2023-07-13T00:51:55;19.00;99.90
1461;DHT22;724;49.910;12.530;2023-07-13T00:54:26;19.00;99.90
1461;DHT22;724;49.910;12.530;2023-07-13T00:56:57;18.90;99.90
1461;DHT22;724;49.910;12.530;2023-07-13T00:59:26;18.90;99.90
1461;DHT22;724;49.910;12.530;2023-07-13T01:01:53;18.90;99.90
1461;DHT22;724;49.910;12.530;2023-07-13T01:04:20;18.90;99.90
1461;DHT22;724;49.910;12.530;2023-07-13T01:06:47;18.90;99.90
1461;DHT22;724;49.910;12.530;2023-07-13T01:09:14;18.90;99.90
1461;DHT22;724;49.910;12.530;2023-07-13T01:11:42;18.90;99.90
1461;DHT22;724;49.910;12.530;2023-07-13T01:14:10;18.80;99.90
1461;DHT22;724;49.910;12.530;2023-07-13T01:16:39;18.80;99.90
1461;DHT22;724;49.910;12.530;2023-07-13T01:19:14;18.70;99.90
1461;DHT22;724;49.910;12.530;2023-07-13T01:21:50;18.60;1.00
1461;DHT22;724;49.910;12.530;2023-07-13T01:24:17;18.60;1.00
1461;DHT22;724;49.910;12.530;2023-07-13T01:26:44;18.50;1.00
1461;DHT22;724;49.910;12.530;2023-07-13T01:29:10;18.40;1.00
1461;DHT22;724;49.910;12.530;2023-07-13T01:31:37;18.40;1.00
1461;DHT22;724;49.910;12.530;2023-07-13T01:34:04;18.30;1.00
1461;DHT22;724;49.910;12.530;2023-07-13T01:36:31;18.20;1.00
1461;DHT22;724;49.910;12.530;2023-07-13T01:39:00;18.20;1.00
1461;DHT22;724;49.910;12.530;2023-07-13T01:41:27;18.20;99.90
1461;DHT22;724;49.910;12.530;2023-07-13T01:43:54;18.20;99.90
1461;DHT22;724;49.910;12.530;2023-07-13T01:46:21;18.10;99.90
1461;DHT22;724;49.910;12.530;2023-07-13T01:48:48;18.10;99.90
1461;DHT22;724;49.910;12.530;2023-07-13T01:51:15;18.00;99.90
1461;DHT22;724;49.910;12.530;2023-07-13T01:53:42;18.00;99.90
1461;DHT22;724;49.910;12.530;2023-07-13T01:56:10;17.90;99.90
1461;DHT22;724;49.910;12.530;2023-07-13T01:58:37;17.90;99.90
1461;DHT22;724;49.910;12.530;2023-07-13T02:01:04;17.90;99.90
1461;DHT22;724;49.910;12.530;2023-07-13T02:03:31;17.80;99.90
1461;DHT22;724;49.910;12.530;2023-07-13T02:05:57;17.70;99.90
1461;DHT22;724;49.910;12.530;2023-07-13T02:08:24;17.60;99.90
1461;DHT22;724;49.910;12.530;2023-07-13T02:10:51;17.50;99.90
1461;DHT22;724;49.910;12.530;2023-07-13T02:13:19;17.40;99.90
1461;DHT22;724;49.910;12.530;2023-07-13T02:15:46;17.40;99.90
1461;DHT22;724;49.910;12.530;2023-07-13T02:18:12;17.30;99.90
1461;DHT22;724;49.910;12.530;2023-07-13T02:20:42;17.20;99.90
1461;DHT22;724;49.910;12.530;2023-07-13T02:23:09;17.20;99.90
1461;DHT22;724;49.910;12.530;2023-07-13T02:25:36;17.20;99.90
1461;DHT22;724;49.910;12.530;2023-07-13T02:28:03;17.20;99.90
1461;DHT22;724;49.910;12.530;2023-07-13T02:30:31;17.10;1.00
1461;DHT22;724;49.910;12.530;2023-07-13T02:32:58;17.10;1.00
1461;DHT22;724;49.910;12.530;2023-07-13T02:35:25;17.10;99.90
1461;DHT22;724;49.910;12.530;2023-07-13T02:37:52;17.10;99.90
1461;DHT22;724;49.910;12.530;2023-07-13T02:40:19;17.00;99.90
1461;DHT22;724;49.910;12.530;2023-07-13T02:42:45;17.00;99.90
1461;DHT22;724;49.910;12.530;2023-07-13T02:45:12;16.90;99.90
1461;DHT22;724;49.910;12.530;2023-07-13T02:47:41;16.80;99.90
1461;DHT22;724;49.910;12.530;2023-07-13T02:50:08;16.70;99.90
1461;DHT22;724;49.910;12.530;2023-07-13T02:52:35;16.70;99.90
1461;DHT22;724;49.910;12.530;2023-07-13T02:55:02;16.70;99.90
1461;DHT22;724;49.910;12.530;2023-07-13T02:57:29;16.60;99.90
1461;DHT22;724;49.910;12.530;2023-07-13T02:59:58;16.60;99.90
1461;DHT22;724;49.910;12.530;2023-07-13T03:02:25;16.50;99.90
1461;DHT22;724;49.910;12.530;2023-07-13T03:04:55;16.40;99.90
1461;DHT22;724;49.910;12.530;2023-07-13T03:07:21;16.50;99.90
1461;DHT22;724;49.910;12.530;2023-07-13T03:09:48;16.30;99.90
1461;DHT22;724;49.910;12.530;2023-07-13T03:12:15;16.30;99.90
1461;DHT22;724;49.910;12.530;2023-07-13T03:14:42;16.30;99.90
1461;DHT22;724;49.910;12.530;2023-07-13T03:17:08;16.30;99.90
1461;DHT22;724;49.910;12.530;2023-07-13T03:19:35;16.20;99.90
1461;DHT22;724;49.910;12.530;2023-07-13T03:22:04;16.20;99.90
1461;DHT22;724;49.910;12.530;2023-07-13T03:24:32;16.20;1.00
1461;DHT22;724;49.910;12.530;2023-07-13T03:27:00;16.20;1.00
1461;DHT22;724;49.910;12.530;2023-07-13T03:29:27;16.30;1.00
1461;DHT22;724;49.910;12.530;2023-07-13T03:31:54;16.40;99.90
1461;DHT22;724;49.910;12.530;2023-07-13T03:34:20;16.40;99.90
1461;DHT22;724;49.910;12.530;2023-07-13T03:36:47;16.40;99.90
1461;DHT22;724;49.910;12.530;2023-07-13T03:39:15;16.40;99.90
1461;DHT22;724;49.910;12.530;2023-07-13T03:41:42;16.30;99.90
1461;DHT22;724;49.910;12.530;2023-07-13T03:44:09;16.20;1.00
1461;DHT22;724;49.910;12.530;2023-07-13T03:46:35;16.20;1.00
1461;DHT22;724;49.910;12.530;2023-07-13T03:49:04;16.20;1.00
1461;DHT22;724;49.910;12.530;2023-07-13T03:51:31;16.20;1.00
1461;DHT22;724;49.910;12.530;2023-07-13T03:53:58;16.20;1.00
1461;DHT22;724;49.910;12.530;2023-07-13T03:56:26;16.20;1.00
1461;DHT22;724;49.910;12.530;2023-07-13T03:58:53;16.20;1.00
1461;DHT22;724;49.910;12.530;2023-07-13T04:01:21;16.20;1.00
1461;DHT22;724;49.910;12.530;2023-07-13T04:03:48;16.20;1.00
1461;DHT22;724;49.910;12.530;2023-07-13T04:06:18;16.30;1.00
1461;DHT22;724;49.910;12.530;2023-07-13T04:08:48;16.20;1.00
1461;DHT22;724;49.910;12.530;2023-07-13T04:11:16;16.20;1.00
1461;DHT22;724;49.910;12.530;2023-07-13T04:13:44;16.20;1.00
1461;DHT22;724;49.910;12.530;2023-07-13T04:16:12;16.20;1.00
1461;DHT22;724;49.910;12.530;2023-07-13T04:18:39;16.20;1.00
1461;DHT22;724;49.910;12.530;2023-07-13T04:21:07;16.20;1.00
1461;DHT22;724;49.910;12.530;2023-07-13T04:23:33;16.20;1.00
1461;DHT22;724;49.910;12.530;2023-07-13T04:26:00;16.20;1.00
1461;DHT22;724;49.910;12.530;2023-07-13T04:28:27;16.30;1.00
1461;DHT22;724;49.910;12.530;2023-07-13T04:30:55;16.20;1.00
1461;DHT22;724;49.910;12.530;2023-07-13T04:33:22;16.30;1.00
1461;DHT22;724;49.910;12.530;2023-07-13T04:35:49;16.40;1.00
1461;DHT22;724;49.910;12.530;2023-07-13T04:38:22;16.50;1.00
1461;DHT22;724;49.910;12.530;2023-07-13T04:40:50;16.60;1.00
1461;DHT22;724;49.910;12.530;2023-07-13T04:43:17;16.70;1.00
1461;DHT22;724;49.910;12.530;2023-07-13T04:45:44;16.80;1.00
1461;DHT22;724;49.910;12.530;2023-07-13T04:48:12;16.90;1.00
1461;DHT22;724;49.910;12.530;2023-07-13T04:50:39;16.90;1.00
1461;DHT22;724;49.910;12.530;2023-07-13T04:53:06;16.90;1.00
1461;DHT22;724;49.910;12.530;2023-07-13T04:55:32;17.00;1.00
1461;DHT22;724;49.910;12.530;2023-07-13T04:57:59;17.00;1.00
1461;DHT22;724;49.910;12.530;2023-07-13T05:00:26;17.00;1.00
1461;DHT22;724;49.910;12.530;2023-07-13T05:02:54;16.90;1.00
1461;DHT22;724;49.910;12.530;2023-07-13T05:05:23;17.00;1.00
1461;DHT22;724;49.910;12.530;2023-07-13T05:07:50;17.00;1.00
1461;DHT22;724;49.910;12.530;2023-07-13T05:10:16;17.00;1.00
1461;DHT22;724;49.910;12.530;2023-07-13T05:12:43;17.00;1.00
1461;DHT22;724;49.910;12.530;2023-07-13T05:15:11;17.10;1.00
1461;DHT22;724;49.910;12.530;2023-07-13T05:17:38;17.30;1.00
1461;DHT22;724;49.910;12.530;2023-07-13T05:20:06;17.50;1.00
1461;DHT22;724;49.910;12.530;2023-07-13T05:22:34;17.60;1.00
1461;DHT22;724;49.910;12.530;2023-07-13T05:25:03;17.50;1.00
1461;DHT22;724;49.910;12.530;2023-07-13T05:27:29;17.50;1.00
1461;DHT22;724;49.910;12.530;2023-07-13T05:29:58;17.60;1.00
1461;DHT22;724;49.910;12.530;2023-07-13T05:32:25;17.40;1.00
1461;DHT22;724;49.910;12.530;2023-07-13T05:34:52;17.30;1.00
1461;DHT22;724;49.910;12.530;2023-07-13T05:37:19;17.20;1.00
1461;DHT22;724;49.910;12.530;2023-07-13T05:39:47;17.10;1.00
1461;DHT22;724;49.910;12.530;2023-07-13T05:42:14;17.30;1.00
1461;DHT22;724;49.910;12.530;2023-07-13T05:44:41;17.10;1.00
1461;DHT22;724;49.910;12.530;2023-07-13T05:47:07;17.00;1.00
1461;DHT22;724;49.910;12.530;2023-07-13T05:49:34;17.10;1.00
1461;DHT22;724;49.910;12.530;2023-07-13T05:52:01;17.40;1.00
1461;DHT22;724;49.910;12.530;2023-07-13T05:54:28;17.40;1.00
1461;DHT22;724;49.910;12.530;2023-07-13T05:56:56;17.30;1.00
1461;DHT22;724;49.910;12.530;2023-07-13T05:59:23;17.70;1.00
1461;DHT22;724;49.910;12.530;2023-07-13T06:01:51;18.10;1.00
1461;DHT22;724;49.910;12.530;2023-07-13T06:04:19;18.10;1.00
1461;DHT22;724;49.910;12.530;2023-07-13T06:06:46;18.30;1.00
1461;DHT22;724;49.910;12.530;2023-07-13T06:09:12;18.70;99.90
1461;DHT22;724;49.910;12.530;2023-07-13T06:11:42;18.90;99.90
1461;DHT22;724;49.910;12.530;2023-07-13T06:14:11;19.20;99.90
1461;DHT22;724;49.910;12.530;2023-07-13T06:16:37;19.40;99.90
1461;DHT22;724;49.910;12.530;2023-07-13T06:19:04;19.60;99.90
1461;DHT22;724;49.910;12.530;2023-07-13T06:21:31;19.90;99.90
1461;DHT22;724;49.910;12.530;2023-07-13T06:23:58;20.10;99.90
1461;DHT22;724;49.910;12.530;2023-07-13T06:26:25;19.70;99.90
1461;DHT22;724;49.910;12.530;2023-07-13T06:28:52;19.90;99.90
1461;DHT22;724;49.910;12.530;2023-07-13T06:31:20;20.00;99.90
1461;DHT22;724;49.910;12.530;2023-07-13T06:33:47;20.30;99.90
1461;DHT22;724;49.910;12.530;2023-07-13T06:36:14;21.30;99.90
1461;DHT22;724;49.910;12.530;2023-07-13T06:38:41;21.50;99.90
1461;DHT22;724;49.910;12.530;2023-07-13T06:41:07;21.80;99.90
1461;DHT22;724;49.910;12.530;2023-07-13T06:43:34;21.70;99.90
1461;DHT22;724;49.910;12.530;2023-07-13T06:46:01;22.40;99.90
1461;DHT22;724;49.910;12.530;2023-07-13T06:48:29;21.90;99.90
1461;DHT22;724;49.910;12.530;2023-07-13T06:50:56;22.30;99.90
1461;DHT22;724;49.910;12.530;2023-07-13T06:53:23;22.80;99.90
1461;DHT22;724;49.910;12.530;2023-07-13T06:55:50;23.30;99.90
1461;DHT22;724;49.910;12.530;2023-07-13T06:58:18;23.10;99.90
1461;DHT22;724;49.910;12.530;2023-07-13T07:00:46;23.40;98.40
1461;DHT22;724;49.910;12.530;2023-07-13T07:03:13;23.70;93.40
1461;DHT22;724;49.910;12.530;2023-07-13T07:05:41;23.30;77.10
1461;DHT22;724;49.910;12.530;2023-07-13T07:08:08;23.80;78.80
1461;DHT22;724;49.910;12.530;2023-07-13T07:10:35;23.90;61.30
1461;DHT22;724;49.910;12.530;2023-07-13T07:13:03;23.70;43.70
1461;DHT22;724;49.910;12.530;2023-07-13T07:15:30;23.70;41.30
1461;DHT22;724;49.910;12.530;2023-07-13T07:17:57;23.10;23.20
1461;DHT22;724;49.910;12.530;2023-07-13T07:20:24;23.60;38.80
1461;DHT22;724;49.910;12.530;2023-07-13T07:22:53;23.50;29.10
1461;DHT22;724;49.910;12.530;2023-07-13T07:25:20;24.20;23.70
1461;DHT22;724;49.910;12.530;2023-07-13T07:27:46;23.80;12.80
1461;DHT22;724;49.910;12.530;2023-07-13T07:30:13;23.80;10.60
1461;DHT22;724;49.910;12.530;2023-07-13T07:32:40;23.40;6.20
1461;DHT22;724;49.910;12.530;2023-07-13T07:35:08;23.60;1.00
1461;DHT22;724;49.910;12.530;2023-07-13T07:37:35;23.70;1.00
1461;DHT22;724;49.910;12.530;2023-07-13T07:40:03;23.80;1.00
1461;DHT22;724;49.910;12.530;2023-07-13T07:42:30;23.90;1.00
1461;DHT22;724;49.910;12.530;2023-07-13T07:44:57;23.70;1.00
1461;DHT22;724;49.910;12.530;2023-07-13T07:47:24;24.10;1.00
1461;DHT22;724;49.910;12.530;2023-07-13T07:49:50;24.10;1.00
1461;DHT22;724;49.910;12.530;2023-07-13T07:52:18;23.90;1.00
1461;DHT22;724;49.910;12.530;2023-07-13T07:54:44;23.70;1.00
1461;DHT22;724;49.910;12.530;2023-07-13T07:57:12;24.10;1.00
1461;DHT22;724;49.910;12.530;2023-07-13T07:59:39;24.00;1.00
1461;DHT22;724;49.910;12.530;2023-07-13T08:02:08;25.00;1.00
1461;DHT22;724;49.910;12.530;2023-07-13T08:04:35;24.30;1.00
1461;DHT22;724;49.910;12.530;2023-07-13T08:07:01;24.30;1.00
1461;DHT22;724;49.910;12.530;2023-07-13T08:09:29;25.20;1.00
1461;DHT22;724;49.910;12.530;2023-07-13T08:11:55;25.10;1.00
1461;DHT22;724;49.910;12.530;2023-07-13T08:14:24;25.10;1.00
1461;DHT22;724;49.910;12.530;2023-07-13T08:16:50;25.10;1.00
1461;DHT22;724;49.910;12.530;2023-07-13T08:19:19;24.40;1.00
1461;DHT22;724;49.910;12.530;2023-07-13T08:21:45;23.50;1.00
1461;DHT22;724;49.910;12.530;2023-07-13T08:24:13;23.60;1.00
1461;DHT22;724;49.910;12.530;2023-07-13T08:26:40;23.10;1.00
1461;DHT22;724;49.910;12.530;2023-07-13T08:29:07;22.60;1.00
1461;DHT22;724;49.910;12.530;2023-07-13T08:31:35;23.40;1.00
1461;DHT22;724;49.910;12.530;2023-07-13T08:34:02;24.20;1.00
1461;DHT22;724;49.910;12.530;2023-07-13T08:36:29;24.80;1.00
1461;DHT22;724;49.910;12.530;2023-07-13T08:38:56;24.20;1.00
1461;DHT22;724;49.910;12.530;2023-07-13T08:41:23;24.40;1.00
1461;DHT22;724;49.910;12.530;2023-07-13T08:43:52;24.60;1.00
1461;DHT22;724;49.910;12.530;2023-07-13T08:46:25;24.40;1.00
1461;DHT22;724;49.910;12.530;2023-07-13T08:48:56;24.70;1.00
1461;DHT22;724;49.910;12.530;2023-07-13T08:51:45;24.40;1.00
1461;DHT22;724;49.910;12.530;2023-07-13T08:54:20;24.40;1.00
1461;DHT22;724;49.910;12.530;2023-07-13T08:56:49;24.60;1.00
1461;DHT22;724;49.910;12.530;2023-07-13T08:59:20;24.20;1.00
1461;DHT22;724;49.910;12.530;2023-07-13T09:02:14;24.30;1.00
1461;DHT22;724;49.910;12.530;2023-07-13T09:04:46;25.10;1.00
1461;DHT22;724;49.910;12.530;2023-07-13T09:07:26;25.10;1.00
1461;DHT22;724;49.910;12.530;2023-07-13T09:10:11;24.00;1.00
1461;DHT22;724;49.910;12.530;2023-07-13T09:12:49;24.00;1.00
1461;DHT22;724;49.910;12.530;2023-07-13T09:15:24;24.40;1.00
1461;DHT22;724;49.910;12.530;2023-07-13T09:17:53;24.80;1.00
1461;DHT22;724;49.910;12.530;2023-07-13T09:20:26;24.50;1.00
1461;DHT22;724;49.910;12.530;2023-07-13T09:22:54;23.30;1.00
1461;DHT22;724;49.910;12.530;2023-07-13T09:25:27;23.00;1.00
1461;DHT22;724;49.910;12.530;2023-07-13T09:27:58;22.60;1.00
1461;DHT22;724;49.910;12.530;2023-07-13T09:30:32;22.60;1.00
1461;DHT22;724;49.910;12.530;2023-07-13T09:33:00;22.90;1.00
1461;DHT22;724;49.910;12.530;2023-07-13T09:35:29;23.10;1.00
1461;DHT22;724;49.910;12.530;2023-07-13T09:38:04;22.50;1.00
1461;DHT22;724;49.910;12.530;2023-07-13T09:40:44;22.30;1.00
1461;DHT22;724;49.910;12.530;2023-07-13T09:43:15;22.90;1.00
1461;DHT22;724;49.910;12.530;2023-07-13T09:45:46;23.50;1.00
1461;DHT22;724;49.910;12.530;2023-07-13T09:48:15;25.00;1.00
1461;DHT22;724;49.910;12.530;2023-07-13T09:50:43;25.30;1.00
1461;DHT22;724;49.910;12.530;2023-07-13T09:53:15;25.70;1.00
1461;DHT22;724;49.910;12.530;2023-07-13T09:55:43;25.60;1.00
1461;DHT22;724;49.910;12.530;2023-07-13T09:58:12;24.20;1.00
1461;DHT22;724;49.910;12.530;2023-07-13T10:00:41;23.50;1.00
1461;DHT22;724;49.910;12.530;2023-07-13T10:03:18;24.20;1.00
1461;DHT22;724;49.910;12.530;2023-07-13T10:05:48;24.80;1.00
1461;DHT22;724;49.910;12.530;2023-07-13T10:08:23;24.80;1.00
1461;DHT22;724;49.910;12.530;2023-07-13T10:10:57;23.60;1.00
1461;DHT22;724;49.910;12.530;2023-07-13T10:13:35;23.30;1.00
1461;DHT22;724;49.910;12.530;2023-07-13T10:16:04;23.70;1.00
1461;DHT22;724;49.910;12.530;2023-07-13T10:18:39;23.80;1.00
1461;DHT22;724;49.910;12.530;2023-07-13T10:21:15;23.60;1.00
1461;DHT22;724;49.910;12.530;2023-07-13T10:23:43;24.20;1.00
1461;DHT22;724;49.910;12.530;2023-07-13T10:26:16;23.90;1.00
1461;DHT22;724;49.910;12.530;2023-07-13T10:28:47;24.00;1.00
1461;DHT22;724;49.910;12.530;2023-07-13T10:31:18;23.60;1.00
1461;DHT22;724;49.910;12.530;2023-07-13T10:33:46;22.90;1.00
1461;DHT22;724;49.910;12.530;2023-07-13T10:36:20;23.00;1.00
1461;DHT22;724;49.910;12.530;2023-07-13T10:38:51;22.90;1.00
1461;DHT22;724;49.910;12.530;2023-07-13T10:41:21;22.80;1.00
1461;DHT22;724;49.910;12.530;2023-07-13T10:43:51;23.00;1.00
1461;DHT22;724;49.910;12.530;2023-07-13T10:46:20;23.40;1.00
1461;DHT22;724;49.910;12.530;2023-07-13T10:48:51;24.20;1.00
1461;DHT22;724;49.910;12.530;2023-07-13T10:51:21;23.60;1.00
1461;DHT22;724;49.910;12.530;2023-07-13T10:54:15;23.70;1.00
1461;DHT22;724;49.910;12.530;2023-07-13T10:56:43;23.70;1.00
1461;DHT22;724;49.910;12.530;2023-07-13T10:59:13;24.60;1.00
1461;DHT22;724;49.910;12.530;2023-07-13T11:01:52;24.60;1.00
1461;DHT22;724;49.910;12.530;2023-07-13T11:04:20;24.70;1.00
1461;DHT22;724;49.910;12.530;2023-07-13T11:06:49;24.30;1.00
1461;DHT22;724;49.910;12.530;2023-07-13T11:09:33;24.30;1.00
1461;DHT22;724;49.910;12.530;2023-07-13T11:12:07;24.90;1.00
1461;DHT22;724;49.910;12.530;2023-07-13T11:14:36;24.80;1.00
1461;DHT22;724;49.910;12.530;2023-07-13T11:17:35;24.80;1.00
1461;DHT22;724;49.910;12.530;2023-07-13T11:20:32;24.80;1.00
1461;DHT22;724;49.910;12.530;2023-07-13T11:23:19;24.40;1.00
1461;DHT22;724;49.910;12.530;2023-07-13T11:25:47;23.90;1.00
1461;DHT22;724;49.910;12.530;2023-07-13T11:28:18;24.20;1.00
1461;DHT22;724;49.910;12.530;2023-07-13T11:30:49;24.30;1.00
1461;DHT22;724;49.910;12.530;2023-07-13T11:33:29;24.40;1.00
1461;DHT22;724;49.910;12.530;2023-07-13T11:36:03;24.70;1.00
1461;DHT22;724;49.910;12.530;2023-07-13T11:38:35;23.80;1.00
1461;DHT22;724;49.910;12.530;2023-07-13T11:41:06;24.70;1.00
1461;DHT22;724;49.910;12.530;2023-07-13T11:43:33;24.00;1.00
1461;DHT22;724;49.910;12.530;2023-07-13T11:46:15;23.50;1.00
1461;DHT22;724;49.910;12.530;2023-07-13T11:48:44;23.30;1.00
1461;DHT22;724;49.910;12.530;2023-07-13T11:51:19;23.70;1.00
1461;DHT22;724;49.910;12.530;2023-07-13T11:53:50;24.10;1.00
1461;DHT22;724;49.910;12.530;2023-07-13T11:56:18;24.80;1.00
1461;DHT22;724;49.910;12.530;2023-07-13T11:58:48;24.80;1.00
1461;DHT22;724;49.910;12.530;2023-07-13T12:01:18;24.40;1.00
1461;DHT22;724;49.910;12.530;2023-07-13T12:03:46;23.90;1.00
1461;DHT22;724;49.910;12.530;2023-07-13T12:06:28;23.80;1.00
1461;DHT22;724;49.910;12.530;2023-07-13T12:08:59;23.40;1.00
1461;DHT22;724;49.910;12.530;2023-07-13T12:11:28;23.80;1.00
1461;DHT22;724;49.910;12.530;2023-07-13T12:13:55;23.80;1.00
1461;DHT22;724;49.910;12.530;2023-07-13T12:16:27;24.40;1.00
1461;DHT22;724;49.910;12.530;2023-07-13T12:18:55;23.90;1.00
1461;DHT22;724;49.910;12.530;2023-07-13T12:21:27;23.50;1.00
1461;DHT22;724;49.910;12.530;2023-07-13T12:23:55;24.00;1.00
1461;DHT22;724;49.910;12.530;2023-07-13T12:26:22;24.00;1.00
1461;DHT22;724;49.910;12.530;2023-07-13T12:28:52;23.40;1.00
1461;DHT22;724;49.910;12.530;2023-07-13T12:31:29;23.60;1.00
1461;DHT22;724;49.910;12.530;2023-07-13T12:33:59;23.70;1.00
1461;DHT22;724;49.910;12.530;2023-07-13T12:36:30;23.60;1.00
1461;DHT22;724;49.910;12.530;2023-07-13T12:39:00;23.20;1.00
1461;DHT22;724;49.910;12.530;2023-07-13T12:41:31;23.20;1.00
1461;DHT22;724;49.910;12.530;2023-07-13T12:44:00;23.60;1.00
1461;DHT22;724;49.910;12.530;2023-07-13T12:46:27;23.90;1.00
1461;DHT22;724;49.910;12.530;2023-07-13T12:48:57;23.60;1.00
1461;DHT22;724;49.910;12.530;2023-07-13T12:51:26;23.70;1.00
1461;DHT22;724;49.910;12.530;2023-07-13T12:53:58;24.20;1.00
1461;DHT22;724;49.910;12.530;2023-07-13T12:56:27;24.30;1.00
1461;DHT22;724;49.910;12.530;2023-07-13T12:58:57;24.30;1.00
1461;DHT22;724;49.910;12.530;2023-07-13T13:01:28;24.00;1.00
1461;DHT22;724;49.910;12.530;2023-07-13T13:03:55;23.50;1.00
1461;DHT22;724;49.910;12.530;2023-07-13T13:06:24;23.20;1.00
1461;DHT22;724;49.910;12.530;2023-07-13T13:08:52;23.70;1.00
1461;DHT22;724;49.910;12.530;2023-07-13T13:11:21;23.90;1.00
1461;DHT22;724;49.910;12.530;2023-07-13T13:13:49;24.10;1.00
1461;DHT22;724;49.910;12.530;2023-07-13T13:16:20;24.30;1.00
1461;DHT22;724;49.910;12.530;2023-07-13T13:18:48;24.70;1.00
1461;DHT22;724;49.910;12.530;2023-07-13T13:21:16;25.00;1.00
1461;DHT22;724;49.910;12.530;2023-07-13T13:23:42;24.70;1.00
1461;DHT22;724;49.910;12.530;2023-07-13T13:26:11;24.40;1.00
1461;DHT22;724;49.910;12.530;2023-07-13T13:28:38;24.20;1.00
1461;DHT22;724;49.910;12.530;2023-07-13T13:31:05;24.60;1.00
1461;DHT22;724;49.910;12.530;2023-07-13T13:33:32;24.80;1.00
1461;DHT22;724;49.910;12.530;2023-07-13T13:36:00;24.60;1.00
1461;DHT22;724;49.910;12.530;2023-07-13T13:38:28;24.80;1.00
1461;DHT22;724;49.910;12.530;2023-07-13T13:40:54;24.10;1.00
1461;DHT22;724;49.910;12.530;2023-07-13T13:43:23;24.40;1.00
1461;DHT22;724;49.910;12.530;2023-07-13T13:45:53;24.40;1.00
1461;DHT22;724;49.910;12.530;2023-07-13T13:48:24;24.50;1.00
1461;DHT22;724;49.910;12.530;2023-07-13T13:50:55;24.80;1.00
1461;DHT22;724;49.910;12.530;2023-07-13T13:53:24;24.60;1.00
1461;DHT22;724;49.910;12.530;2023-07-13T13:55:50;24.40;1.00
1461;DHT22;724;49.910;12.530;2023-07-13T13:58:18;24.40;1.00
1461;DHT22;724;49.910;12.530;2023-07-13T14:00:45;24.40;1.00
1461;DHT22;724;49.910;12.530;2023-07-13T14:03:15;24.20;1.00
1461;DHT22;724;49.910;12.530;2023-07-13T14:05:42;24.00;1.00
1461;DHT22;724;49.910;12.530;2023-07-13T14:08:13;24.20;1.00
1461;DHT22;724;49.910;12.530;2023-07-13T14:10:45;23.70;1.00
1461;DHT22;724;49.910;12.530;2023-07-13T14:13:16;23.00;1.00
1461;DHT22;724;49.910;12.530;2023-07-13T14:15:47;23.00;1.00
1461;DHT22;724;49.910;12.530;2023-07-13T14:18:14;23.80;1.00
1461;DHT22;724;49.910;12.530;2023-07-13T14:20:43;23.70;1.00
1461;DHT22;724;49.910;12.530;2023-07-13T14:23:10;23.60;1.00
1461;DHT22;724;49.910;12.530;2023-07-13T14:25:37;23.80;1.00
1461;DHT22;724;49.910;12.530;2023-07-13T14:28:21;23.80;1.00
1461;DHT22;724;49.910;12.530;2023-07-13T14:30:50;23.50;1.00
1461;DHT22;724;49.910;12.530;2023-07-13T14:33:17;23.20;1.00
1461;DHT22;724;49.910;12.530;2023-07-13T14:35:44;23.10;1.00
1461;DHT22;724;49.910;12.530;2023-07-13T14:38:15;23.10;1.00
1461;DHT22;724;49.910;12.530;2023-07-13T14:40:43;23.20;1.00
1461;DHT22;724;49.910;12.530;2023-07-13T14:43:13;23.40;1.00
1461;DHT22;724;49.910;12.530;2023-07-13T14:45:41;23.80;1.00
1461;DHT22;724;49.910;12.530;2023-07-13T14:48:14;23.80;1.00
1461;DHT22;724;49.910;12.530;2023-07-13T14:50:41;24.00;1.00
1461;DHT22;724;49.910;12.530;2023-07-13T14:53:10;24.10;1.00
1461;DHT22;724;49.910;12.530;2023-07-13T14:55:37;23.60;1.00
1461;DHT22;724;49.910;12.530;2023-07-13T14:58:04;24.10;1.00
1461;DHT22;724;49.910;12.530;2023-07-13T15:00:33;23.90;1.00
1461;DHT22;724;49.910;12.530;2023-07-13T15:03:00;24.00;1.00
1461;DHT22;724;49.910;12.530;2023-07-13T15:05:29;23.80;1.00
1461;DHT22;724;49.910;12.530;2023-07-13T15:07:58;24.10;1.00
1461;DHT22;724;49.910;12.530;2023-07-13T15:10:27;23.90;1.00
1461;DHT22;724;49.910;12.530;2023-07-13T15:12:58;24.10;1.00
1461;DHT22;724;49.910;12.530;2023-07-13T15:15:27;23.80;1.00
1461;DHT22;724;49.910;12.530;2023-07-13T15:17:55;24.20;1.00
1461;DHT22;724;49.910;12.530;2023-07-13T15:20:26;24.20;1.00
1461;DHT22;724;49.910;12.530;2023-07-13T15:22:54;23.90;1.00
1461;DHT22;724;49.910;12.530;2023-07-13T15:25:23;23.70;1.00
1461;DHT22;724;49.910;12.530;2023-07-13T15:27:50;23.10;1.00
1461;DHT22;724;49.910;12.530;2023-07-13T15:30:17;22.70;1.00
1461;DHT22;724;49.910;12.530;2023-07-13T15:32:45;22.70;1.00
1461;DHT22;724;49.910;12.530;2023-07-13T15:35:18;23.40;1.00
1461;DHT22;724;49.910;12.530;2023-07-13T15:37:45;24.10;1.00
1461;DHT22;724;49.910;12.530;2023-07-13T15:40:13;24.10;1.00
1461;DHT22;724;49.910;12.530;2023-07-13T15:42:41;23.70;1.00
1461;DHT22;724;49.910;12.530;2023-07-13T15:45:16;23.20;1.00
1461;DHT22;724;49.910;12.530;2023-07-13T15:47:43;22.80;1.00
1461;DHT22;724;49.910;12.530;2023-07-13T15:50:13;23.20;1.00
1461;DHT22;724;49.910;12.530;2023-07-13T15:52:42;24.00;1.00
1461;DHT22;724;49.910;12.530;2023-07-13T15:55:11;23.90;1.00
1461;DHT22;724;49.910;12.530;2023-07-13T15:57:38;24.30;1.00
1461;DHT22;724;49.910;12.530;2023-07-13T16:00:16;24.50;1.00
1461;DHT22;724;49.910;12.530;2023-07-13T16:02:45;23.10;1.00
1461;DHT22;724;49.910;12.530;2023-07-13T16:05:12;22.50;1.00
1461;DHT22;724;49.910;12.530;2023-07-13T16:07:41;22.20;1.00
1461;DHT22;724;49.910;12.530;2023-07-13T16:10:13;22.40;1.00
1461;DHT22;724;49.910;12.530;2023-07-13T16:12:40;22.30;1.00
1461;DHT22;724;49.910;12.530;2023-07-13T16:15:12;22.30;1.00
1461;DHT22;724;49.910;12.530;2023-07-13T16:17:41;22.80;1.00
1461;DHT22;724;49.910;12.530;2023-07-13T16:20:09;23.10;1.00
1461;DHT22;724;49.910;12.530;2023-07-13T16:22:38;22.80;1.00